createdAt,value
2023-01-19T00:00:50.940Z,1007.22
2023-01-19T00:33:28.399Z,1007.31
2023-01-19T01:01:47.258Z,1007.62
2023-01-19T01:29:55.671Z,1007.64
2023-01-19T01:58:38.365Z,1007.7
2023-01-19T02:27:12.579Z,1007.6
2023-01-19T02:55:56.978Z,1007.64
2023-01-19T03:24:38.746Z,1007.74
2023-01-19T03:53:10.734Z,1007.68
2023-01-19T04:21:32.966Z,1007.96
2023-01-19T04:49:57.427Z,1008.12
2023-01-19T05:18:37.933Z,1008.26
2023-01-19T05:47:06.695Z,1008.5
2023-01-19T06:15:36.996Z,1008.49
2023-01-19T06:44:07.479Z,1008.59
2023-01-19T07:12:40.447Z,1008.73
2023-01-19T07:41:06.961Z,1008.87
2023-01-19T08:09:29.306Z,1009.13
2023-01-19T08:37:44.442Z,1009.3
2023-01-19T09:05:53.417Z,1009.48
2023-01-19T09:34:16.910Z,1009.55
2023-01-19T10:02:43.427Z,1009.6
2023-01-19T10:31:04.317Z,1009.51
2023-01-19T10:59:24.088Z,1009.5
2023-01-19T11:27:42.017Z,1009.25
2023-01-19T11:56:24.536Z,1009.26
2023-01-19T12:24:45.645Z,1009.11
2023-01-19T12:53:03.980Z,1008.99
2023-01-19T13:21:27.969Z,1008.85
2023-01-19T13:49:47.577Z,1008.99
2023-01-19T14:18:13.854Z,1009.02
2023-01-19T14:46:33.167Z,1009.07
2023-01-19T15:14:52.354Z,1009.12
2023-01-19T15:43:22.635Z,1009.14
2023-01-19T16:11:47.932Z,1009.1
2023-01-19T16:40:13.174Z,1009.1
2023-01-19T17:08:25.550Z,1009.09
2023-01-19T17:36:50.551Z,1009.09
2023-01-19T18:05:10.918Z,1009.13
2023-01-19T18:33:29.870Z,1009.07
2023-01-19T19:02:02.157Z,1009.16
2023-01-19T19:30:29.412Z,1009.15
2023-01-19T19:58:55.442Z,1009.24
2023-01-19T20:27:25.477Z,1009.35
2023-01-19T20:55:41.951Z,1009.52
2023-01-19T21:24:18.855Z,1009.75
2023-01-19T21:52:44.946Z,1009.9
2023-01-19T22:21:01.571Z,1010.19
2023-01-19T22:49:22.607Z,1010.28
2023-01-19T23:17:54.995Z,1010.37
2023-01-19T23:46:26.984Z,1010.53
